createdAt,value
2022-12-16T00:01:27.498Z,2.00
2022-12-16T00:03:57.915Z,2.00
2022-12-16T00:06:28.338Z,2.00
2022-12-16T00:08:56.961Z,2.00
2022-12-16T00:11:25.081Z,2.00
2022-12-16T00:13:55.112Z,2.00
2022-12-16T00:16:23.335Z,2.00
2022-12-16T00:18:52.789Z,1.90
2022-12-16T00:21:21.230Z,1.90
2022-12-16T00:23:49.461Z,1.90
2022-12-16T00:26:17.365Z,1.90
2022-12-16T00:28:45.346Z,1.90
2022-12-16T00:31:13.323Z,1.90
2022-12-16T00:33:41.435Z,1.90
2022-12-16T00:36:11.179Z,1.90
2022-12-16T00:38:39.373Z,1.90
2022-12-16T00:41:08.043Z,1.90
2022-12-16T00:43:36.544Z,1.90
2022-12-16T00:46:04.869Z,1.90
2022-12-16T00:48:32.862Z,1.90
2022-12-16T00:51:00.845Z,1.90
2022-12-16T00:53:30.752Z,1.90
2022-12-16T00:56:06.246Z,1.90
2022-12-16T00:58:34.191Z,1.90
2022-12-16T01:01:02.656Z,1.90
2022-12-16T01:03:30.913Z,1.90
2022-12-16T01:05:58.894Z,1.90
2022-12-16T01:08:27.124Z,1.90
2022-12-16T01:10:58.305Z,1.90
2022-12-16T01:13:26.877Z,1.90
2022-12-16T01:15:55.168Z,1.90
2022-12-16T01:18:23.089Z,1.90
2022-12-16T01:20:51.328Z,1.90
2022-12-16T01:23:19.631Z,1.90
2022-12-16T01:25:52.082Z,1.90
2022-12-16T01:28:21.289Z,1.90
2022-12-16T01:30:49.193Z,1.90
2022-12-16T01:33:18.033Z,1.90
2022-12-16T01:35:55.239Z,1.80
2022-12-16T01:38:23.653Z,1.80
2022-12-16T01:40:51.621Z,1.90
2022-12-16T01:43:25.232Z,1.90
2022-12-16T01:45:54.588Z,1.80
2022-12-16T01:48:31.571Z,1.80
2022-12-16T01:51:04.330Z,1.80
2022-12-16T01:53:33.297Z,1.90
2022-12-16T01:56:02.518Z,1.80
2022-12-16T01:58:35.331Z,1.90
2022-12-16T02:01:04.499Z,1.90
2022-12-16T02:03:36.748Z,1.90
2022-12-16T02:06:06.892Z,1.90
2022-12-16T02:08:34.826Z,1.90
2022-12-16T02:11:30.140Z,1.80
2022-12-16T02:14:33.061Z,1.90
2022-12-16T02:17:06.386Z,1.90
2022-12-16T02:20:06.472Z,1.90
2022-12-16T02:22:48.353Z,1.80
2022-12-16T02:25:48.240Z,1.80
2022-12-16T02:28:31.141Z,1.80
2022-12-16T02:31:17.628Z,1.80
2022-12-16T02:33:53.307Z,1.80
2022-12-16T02:36:31.494Z,1.80
2022-12-16T02:39:05.937Z,1.80
2022-12-16T02:41:42.845Z,1.80
2022-12-16T02:44:13.236Z,1.80
2022-12-16T02:46:44.377Z,1.80
2022-12-16T02:49:45.986Z,1.80
2022-12-16T02:52:14.619Z,1.70
2022-12-16T02:54:43.001Z,1.70
2022-12-16T02:57:44.247Z,1.70
2022-12-16T03:00:15.104Z,1.70
2022-12-16T03:02:52.574Z,1.70
2022-12-16T03:05:25.951Z,1.70
2022-12-16T03:07:55.178Z,1.70
2022-12-16T03:10:28.905Z,1.70
2022-12-16T03:12:59.447Z,1.70
2022-12-16T03:15:29.928Z,1.70
2022-12-16T03:18:00.739Z,1.70
2022-12-16T03:20:32.968Z,1.70
2022-12-16T03:23:04.010Z,1.70
2022-12-16T03:25:35.569Z,1.70
2022-12-16T03:28:12.301Z,1.70
2022-12-16T03:30:48.161Z,1.70
2022-12-16T03:33:25.030Z,1.60
2022-12-16T03:35:58.698Z,1.60
2022-12-16T03:38:28.436Z,1.60
2022-12-16T03:40:58.262Z,1.60
2022-12-16T03:43:26.453Z,1.60
2022-12-16T03:45:59.589Z,1.60
2022-12-16T03:48:28.920Z,1.60
2022-12-16T03:50:56.829Z,1.60
2022-12-16T03:53:26.933Z,1.60
2022-12-16T03:55:55.107Z,1.60
2022-12-16T03:58:23.164Z,1.60
2022-12-16T04:00:51.036Z,1.60
2022-12-16T04:03:19.124Z,1.50
2022-12-16T04:05:48.491Z,1.50
2022-12-16T04:08:16.521Z,1.60
2022-12-16T04:11:01.657Z,1.50
2022-12-16T04:13:55.482Z,1.50
2022-12-16T04:16:40.982Z,1.50
2022-12-16T04:19:33.250Z,1.50
2022-12-16T04:22:19.963Z,1.50
2022-12-16T04:24:47.907Z,1.50
2022-12-16T04:27:29.342Z,1.50
2022-12-16T04:30:14.697Z,1.40
2022-12-16T04:33:00.134Z,1.40
2022-12-16T04:35:45.630Z,1.40
2022-12-16T04:38:32.260Z,1.30
2022-12-16T04:41:17.689Z,1.30
2022-12-16T04:44:03.183Z,1.30
2022-12-16T04:46:48.830Z,1.30
2022-12-16T04:49:34.214Z,1.30
2022-12-16T04:52:19.870Z,1.30
2022-12-16T04:55:06.546Z,1.30
2022-12-16T04:57:51.961Z,1.30
2022-12-16T05:00:37.824Z,1.30
2022-12-16T05:03:23.016Z,1.30
2022-12-16T05:06:08.544Z,1.40
2022-12-16T05:08:53.999Z,1.40
2022-12-16T05:11:40.729Z,1.40
2022-12-16T05:14:26.103Z,1.30
2022-12-16T05:17:11.496Z,1.30
2022-12-16T05:20:11.509Z,1.40
2022-12-16T05:22:56.792Z,1.40
2022-12-16T05:25:42.261Z,1.40
2022-12-16T05:28:29.255Z,1.40
2022-12-16T05:31:14.792Z,1.30
2022-12-16T05:34:00.350Z,1.40
2022-12-16T05:36:45.780Z,1.30
2022-12-16T05:39:31.303Z,1.30
2022-12-16T05:42:16.889Z,1.30
2022-12-16T05:45:03.512Z,1.30
2022-12-16T05:47:49.095Z,1.30
2022-12-16T05:50:34.331Z,1.30
2022-12-16T05:53:19.968Z,1.30
2022-12-16T05:56:05.667Z,1.30
2022-12-16T05:58:51.236Z,1.30
2022-12-16T06:01:38.239Z,1.30
2022-12-16T06:04:23.903Z,1.30
2022-12-16T06:07:09.351Z,1.20
2022-12-16T06:09:57.001Z,1.20
2022-12-16T06:12:42.413Z,1.30
2022-12-16T06:15:28.645Z,1.30
2022-12-16T06:18:15.547Z,1.30
2022-12-16T06:21:01.533Z,1.30
2022-12-16T06:23:47.202Z,1.30
2022-12-16T06:26:32.592Z,1.30
2022-12-16T06:29:18.054Z,1.30
2022-12-16T06:32:03.650Z,1.30
2022-12-16T06:34:50.397Z,1.30
2022-12-16T06:37:35.893Z,1.30
2022-12-16T06:40:21.738Z,1.30
2022-12-16T06:43:07.160Z,1.30
2022-12-16T06:45:52.895Z,1.30
2022-12-16T06:48:38.143Z,1.30
2022-12-16T06:51:24.839Z,1.30
2022-12-16T06:54:10.432Z,1.30
2022-12-16T06:56:55.875Z,1.30
2022-12-16T06:59:41.091Z,1.30
2022-12-16T07:02:29.384Z,1.20
2022-12-16T07:05:14.707Z,1.20
2022-12-16T07:08:09.196Z,1.20
2022-12-16T07:10:58.708Z,1.20
2022-12-16T07:13:48.785Z,1.20
2022-12-16T07:16:34.319Z,1.20
2022-12-16T07:19:19.662Z,1.20
2022-12-16T07:22:05.229Z,1.20
2022-12-16T07:24:51.859Z,1.20
2022-12-16T07:27:37.296Z,1.20
2022-12-16T07:30:23.727Z,1.20
2022-12-16T07:33:17.808Z,1.20
2022-12-16T07:36:03.411Z,1.30
2022-12-16T07:38:48.779Z,1.20
2022-12-16T07:41:35.503Z,1.20
2022-12-16T07:44:21.184Z,1.20
2022-12-16T07:47:06.764Z,1.20
2022-12-16T07:49:52.436Z,1.30
2022-12-16T07:52:40.499Z,1.30
2022-12-16T07:55:32.141Z,1.30
2022-12-16T07:58:18.651Z,1.30
2022-12-16T08:01:09.347Z,1.30
2022-12-16T08:03:55.904Z,1.30
2022-12-16T08:06:41.536Z,1.30
2022-12-16T08:09:27.191Z,1.30
2022-12-16T08:12:18.372Z,1.30
2022-12-16T08:15:05.310Z,1.40
2022-12-16T08:17:50.909Z,1.30
2022-12-16T08:20:37.912Z,1.30
2022-12-16T08:23:23.377Z,1.40
2022-12-16T08:26:09.007Z,1.40
2022-12-16T08:28:54.508Z,1.40
2022-12-16T08:31:41.261Z,1.40
2022-12-16T08:34:27.331Z,1.40
2022-12-16T08:37:12.802Z,1.40
2022-12-16T08:43:07.833Z,1.40
2022-12-16T08:45:56.424Z,1.40
2022-12-16T08:48:43.218Z,1.40
2022-12-16T08:51:28.727Z,1.40
2022-12-16T08:54:14.188Z,1.40
2022-12-16T08:56:59.700Z,1.40
2022-12-16T08:59:45.336Z,1.50
2022-12-16T09:02:36.336Z,1.50
2022-12-16T09:05:23.555Z,1.50
2022-12-16T09:08:08.942Z,1.50
2022-12-16T09:10:55.230Z,1.60
2022-12-16T09:13:40.314Z,1.60
2022-12-16T09:16:28.342Z,1.60
2022-12-16T09:19:10.168Z,1.60
2022-12-16T09:21:56.682Z,1.60
2022-12-16T09:24:42.262Z,1.70
2022-12-16T09:27:27.643Z,1.70
2022-12-16T09:30:13.197Z,1.80
2022-12-16T09:33:00.772Z,1.80
2022-12-16T09:35:46.115Z,1.80
2022-12-16T09:38:33.408Z,1.90
2022-12-16T09:41:33.303Z,1.90
2022-12-16T09:44:29.794Z,1.90
2022-12-16T09:47:23.838Z,2.00
2022-12-16T09:50:11.377Z,1.90
2022-12-16T09:53:03.317Z,1.90
2022-12-16T09:55:53.579Z,1.90
2022-12-16T09:58:40.443Z,1.90
2022-12-16T10:01:28.083Z,2.00
2022-12-16T10:04:13.531Z,2.00
2022-12-16T10:07:03.854Z,2.10
2022-12-16T10:09:55.294Z,2.10
2022-12-16T10:12:50.969Z,2.20
2022-12-16T10:15:48.878Z,2.20
2022-12-16T10:18:48.572Z,2.30
2022-12-16T10:21:39.007Z,2.30
2022-12-16T10:24:35.474Z,2.30
2022-12-16T10:27:27.650Z,2.40
2022-12-16T10:30:20.262Z,2.30
2022-12-16T10:33:07.353Z,2.30
2022-12-16T10:35:56.122Z,2.30
2022-12-16T10:38:50.984Z,2.30
2022-12-16T10:41:37.013Z,2.30
2022-12-16T10:44:31.011Z,2.30
2022-12-16T10:47:17.696Z,2.30
2022-12-16T10:50:03.277Z,2.20
2022-12-16T10:52:48.946Z,2.20
2022-12-16T10:55:43.434Z,2.20
2022-12-16T10:58:42.395Z,2.20
2022-12-16T11:01:40.587Z,2.20
2022-12-16T11:04:52.031Z,2.20
2022-12-16T11:07:48.298Z,2.10
2022-12-16T11:10:48.349Z,2.10
2022-12-16T11:13:40.279Z,2.10
2022-12-16T11:16:34.509Z,2.20
2022-12-16T11:19:21.152Z,2.10
2022-12-16T11:22:09.081Z,2.10
2022-12-16T11:24:54.959Z,2.20
2022-12-16T11:27:44.918Z,2.20
2022-12-16T11:30:42.793Z,2.20
2022-12-16T11:33:38.018Z,2.20
2022-12-16T11:36:32.569Z,2.30
2022-12-16T11:39:20.734Z,2.30
2022-12-16T11:42:08.818Z,2.30
2022-12-16T11:44:59.335Z,2.30
2022-12-16T11:47:53.739Z,2.30
2022-12-16T11:50:40.670Z,2.30
2022-12-16T11:53:42.706Z,2.40
2022-12-16T11:56:33.714Z,2.40
2022-12-16T11:59:22.861Z,2.40
2022-12-16T12:02:14.093Z,2.40
2022-12-16T12:04:59.887Z,2.30
2022-12-16T12:07:52.472Z,2.30
2022-12-16T12:11:05.677Z,2.30
2022-12-16T12:14:08.535Z,2.40
2022-12-16T12:17:04.393Z,2.30
2022-12-16T12:20:02.369Z,2.40
2022-12-16T12:22:53.540Z,2.40
2022-12-16T12:25:46.511Z,2.40
2022-12-16T12:28:44.414Z,2.40
2022-12-16T12:31:44.089Z,2.40
2022-12-16T12:34:36.157Z,2.40
2022-12-16T12:37:28.252Z,2.40
2022-12-16T12:40:18.934Z,2.40
2022-12-16T12:43:08.025Z,2.60
2022-12-16T12:46:09.027Z,2.60
2022-12-16T12:49:00.314Z,2.70
2022-12-16T12:51:53.062Z,2.70
2022-12-16T12:54:48.462Z,2.70
2022-12-16T12:57:38.314Z,2.80
2022-12-16T13:00:26.011Z,2.80
2022-12-16T13:03:20.153Z,2.80
2022-12-16T13:06:07.664Z,2.90
2022-12-16T13:09:03.087Z,2.90
2022-12-16T13:11:48.639Z,3.00
2022-12-16T13:15:12.217Z,2.90
2022-12-16T13:18:49.122Z,2.80
2022-12-16T13:22:06.686Z,2.70
2022-12-16T13:25:01.579Z,2.60
2022-12-16T13:27:49.304Z,2.50
2022-12-16T13:30:43.172Z,2.50
2022-12-16T13:33:55.545Z,2.40
2022-12-16T13:36:53.330Z,2.30
2022-12-16T13:39:48.684Z,2.30
2022-12-16T13:43:06.806Z,2.20
2022-12-16T13:45:55.284Z,2.20
2022-12-16T13:49:01.925Z,2.10
2022-12-16T13:52:26.680Z,2.10
2022-12-16T13:55:25.145Z,2.10
2022-12-16T13:58:20.513Z,2.10
2022-12-16T14:01:15.614Z,2.00
2022-12-16T14:04:04.207Z,2.00
2022-12-16T14:06:50.739Z,2.00
2022-12-16T14:09:46.573Z,2.00
2022-12-16T14:12:49.501Z,2.00
2022-12-16T14:15:44.299Z,2.00
2022-12-16T14:18:43.623Z,2.00
2022-12-16T14:21:34.769Z,1.90
2022-12-16T14:24:28.192Z,2.00
2022-12-16T14:27:14.952Z,1.90
2022-12-16T14:30:02.966Z,1.90
2022-12-16T14:32:50.424Z,1.90
2022-12-16T14:35:38.570Z,1.90
2022-12-16T14:38:39.884Z,1.90
2022-12-16T14:41:29.742Z,1.80
2022-12-16T14:44:23.413Z,1.80
2022-12-16T14:47:10.620Z,1.70
2022-12-16T14:50:08.379Z,1.70
2022-12-16T14:52:57.881Z,1.70
2022-12-16T14:55:47.876Z,1.70
2022-12-16T14:58:34.111Z,1.70
2022-12-16T15:01:23.993Z,1.70
2022-12-16T15:04:11.181Z,1.70
2022-12-16T15:06:59.425Z,1.70
2022-12-16T15:09:47.898Z,1.70
2022-12-16T15:12:37.091Z,1.60
2022-12-16T15:15:24.436Z,1.60
2022-12-16T15:18:12.792Z,1.60
2022-12-16T15:21:08.076Z,1.60
2022-12-16T15:23:58.501Z,1.60
2022-12-16T15:26:46.055Z,1.60
2022-12-16T15:29:48.271Z,1.50
2022-12-16T15:32:50.971Z,1.50
2022-12-16T15:35:44.147Z,1.50
2022-12-16T15:38:36.709Z,1.50
2022-12-16T15:41:24.199Z,1.50
2022-12-16T15:44:11.052Z,1.50
2022-12-16T15:46:56.706Z,1.50
2022-12-16T15:49:52.126Z,1.50
2022-12-16T15:52:42.184Z,1.50
2022-12-16T15:55:47.458Z,1.40
2022-12-16T15:58:41.553Z,1.40
2022-12-16T16:01:27.972Z,1.40
2022-12-16T16:04:15.380Z,1.40
2022-12-16T16:07:03.992Z,1.40
2022-12-16T16:09:51.596Z,1.40
2022-12-16T16:12:40.290Z,1.40
2022-12-16T16:15:27.687Z,1.40
2022-12-16T16:18:29.812Z,1.40
2022-12-16T16:21:15.095Z,1.40
2022-12-16T16:24:00.659Z,1.40
2022-12-16T16:26:46.728Z,1.40
2022-12-16T16:29:33.315Z,1.30
2022-12-16T16:32:19.892Z,1.40
2022-12-16T16:35:05.539Z,1.30
2022-12-16T16:37:50.926Z,1.30
2022-12-16T16:40:42.045Z,1.40
2022-12-16T16:43:27.685Z,1.30
2022-12-16T16:46:15.810Z,1.30
2022-12-16T16:49:16.293Z,1.30
2022-12-16T16:52:01.655Z,1.30
2022-12-16T16:54:46.897Z,1.30
2022-12-16T16:57:32.422Z,1.30
2022-12-16T17:00:17.985Z,1.30
2022-12-16T17:03:04.865Z,1.30
2022-12-16T17:05:50.357Z,1.30
2022-12-16T17:08:35.739Z,1.30
2022-12-16T17:11:21.507Z,1.30
2022-12-16T17:14:07.003Z,1.20
2022-12-16T17:16:52.455Z,1.20
2022-12-16T17:19:39.363Z,1.20
2022-12-16T17:22:24.650Z,1.20
2022-12-16T17:25:10.247Z,1.20
2022-12-16T17:27:55.691Z,1.10
2022-12-16T17:30:46.893Z,1.10
2022-12-16T17:33:33.756Z,1.10
2022-12-16T17:36:21.084Z,1.10
2022-12-16T17:39:06.464Z,1.10
2022-12-16T17:41:52.366Z,1.10
2022-12-16T17:44:52.853Z,1.10
2022-12-16T17:47:38.552Z,1.10
2022-12-16T17:50:24.871Z,1.10
2022-12-16T17:53:14.535Z,1.10
2022-12-16T17:56:00.116Z,1.10
2022-12-16T17:58:48.997Z,1.10
2022-12-16T18:01:34.633Z,1.10
2022-12-16T18:04:19.931Z,1.10
2022-12-16T18:07:05.354Z,1.10
2022-12-16T18:09:52.422Z,1.10
2022-12-16T18:12:37.912Z,1.00
2022-12-16T18:15:23.977Z,1.00
2022-12-16T18:18:09.521Z,1.00
2022-12-16T18:20:56.475Z,1.00
2022-12-16T18:23:42.104Z,1.00
2022-12-16T18:26:29.244Z,1.00
2022-12-16T18:29:14.834Z,1.00
2022-12-16T18:32:00.501Z,1.00
2022-12-16T18:34:45.796Z,1.00
2022-12-16T18:37:31.917Z,1.00
2022-12-16T18:40:17.453Z,0.90
2022-12-16T18:43:04.241Z,1.00
2022-12-16T18:45:49.766Z,0.90
2022-12-16T18:48:35.196Z,0.90
2022-12-16T18:51:20.702Z,0.90
2022-12-16T18:54:08.922Z,0.90
2022-12-16T18:56:54.352Z,0.90
2022-12-16T18:59:41.016Z,0.90
2022-12-16T19:02:27.128Z,0.90
2022-12-16T19:05:12.337Z,0.90
2022-12-16T19:07:57.984Z,0.90
2022-12-16T19:10:43.455Z,0.90
2022-12-16T19:13:31.481Z,0.80
2022-12-16T19:16:18.332Z,0.80
2022-12-16T19:19:02.778Z,0.80
2022-12-16T19:21:51.349Z,0.80
2022-12-16T19:24:38.045Z,0.80
2022-12-16T19:27:23.534Z,0.80
2022-12-16T19:30:09.003Z,0.80
2022-12-16T19:32:56.008Z,0.80
2022-12-16T19:35:41.379Z,0.80
2022-12-16T19:38:31.658Z,0.80
2022-12-16T19:41:17.301Z,0.80
2022-12-16T19:47:09.241Z,0.80
2022-12-16T19:49:56.443Z,0.80
2022-12-16T19:52:42.001Z,0.80
2022-12-16T19:55:27.989Z,0.80
2022-12-16T19:58:13.554Z,0.80
2022-12-16T20:00:59.050Z,0.80
2022-12-16T20:03:45.120Z,0.80
2022-12-16T20:06:33.377Z,0.80
2022-12-16T20:09:18.838Z,0.80
2022-12-16T20:12:04.362Z,0.80
2022-12-16T20:14:49.799Z,0.80
2022-12-16T20:17:35.222Z,0.80
2022-12-16T20:20:20.891Z,0.80
2022-12-16T20:23:07.709Z,0.80
2022-12-16T20:28:58.670Z,0.80
2022-12-16T20:31:43.938Z,0.80
2022-12-16T20:34:29.376Z,0.80
2022-12-16T20:37:14.827Z,0.80
2022-12-16T20:40:01.874Z,0.80
2022-12-16T20:42:47.222Z,0.70
2022-12-16T20:45:32.949Z,0.80
2022-12-16T20:48:18.857Z,0.80
2022-12-16T20:51:08.178Z,0.80
2022-12-16T20:53:53.722Z,0.80
2022-12-16T20:56:43.066Z,0.80
2022-12-16T20:59:28.426Z,0.80
2022-12-16T21:02:22.587Z,0.80
2022-12-16T21:05:19.344Z,0.70
2022-12-16T21:08:04.692Z,0.70
2022-12-16T21:10:50.060Z,0.70
2022-12-16T21:13:36.698Z,0.70
2022-12-16T21:16:24.758Z,0.80
2022-12-16T21:19:10.588Z,0.70
2022-12-16T21:21:56.597Z,0.70
2022-12-16T21:24:42.182Z,0.70
2022-12-16T21:27:29.613Z,0.80
2022-12-16T21:30:16.473Z,0.70
2022-12-16T21:33:01.837Z,0.80
2022-12-16T21:35:47.229Z,0.80
2022-12-16T21:38:32.752Z,0.80
2022-12-16T21:41:18.298Z,0.80
2022-12-16T21:44:03.942Z,0.80
2022-12-16T21:46:51.818Z,0.80
2022-12-16T21:49:37.376Z,0.80
2022-12-16T21:52:23.301Z,0.70
2022-12-16T21:55:14.217Z,0.70
2022-12-16T21:58:01.324Z,0.70
2022-12-16T22:00:46.777Z,0.70
2022-12-16T22:03:33.664Z,0.70
2022-12-16T22:06:18.921Z,0.60
2022-12-16T22:09:04.332Z,0.50
2022-12-16T22:11:49.956Z,0.50
2022-12-16T22:14:35.428Z,0.50
2022-12-16T22:17:20.935Z,0.50
2022-12-16T22:20:08.020Z,0.40
2022-12-16T22:22:55.643Z,0.30
2022-12-16T22:25:41.709Z,0.30
2022-12-16T22:28:27.268Z,0.20
2022-12-16T22:31:15.879Z,0.10
2022-12-16T22:34:13.418Z,0.00
2022-12-16T22:37:05.526Z,-0.10
2022-12-16T22:39:51.069Z,-0.20
2022-12-16T22:42:42.610Z,-0.30
2022-12-16T22:45:28.547Z,-0.40
2022-12-16T22:48:14.519Z,-0.50
2022-12-16T22:51:00.091Z,-0.60
2022-12-16T22:53:46.687Z,-0.70
2022-12-16T22:56:32.042Z,-0.70
2022-12-16T22:59:17.747Z,-0.80
2022-12-16T23:02:03.324Z,-0.80
2022-12-16T23:04:48.867Z,-0.90
2022-12-16T23:07:34.441Z,-1.00
2022-12-16T23:10:21.254Z,-1.00
2022-12-16T23:13:06.724Z,-1.10
2022-12-16T23:15:52.466Z,-1.20
2022-12-16T23:18:38.022Z,-1.20
2022-12-16T23:21:23.391Z,-1.30
2022-12-16T23:24:10.479Z,-1.30
2022-12-16T23:26:57.148Z,-1.30
2022-12-16T23:29:42.671Z,-1.40
2022-12-16T23:32:28.095Z,-1.40
2022-12-16T23:35:13.590Z,-1.40
2022-12-16T23:37:59.257Z,-1.50
2022-12-16T23:40:44.745Z,-1.50
2022-12-16T23:43:31.229Z,-1.50
2022-12-16T23:46:16.677Z,-1.50
2022-12-16T23:49:02.138Z,-1.50
2022-12-16T23:51:47.727Z,-1.50
2022-12-16T23:54:33.177Z,-1.60
2022-12-16T23:57:18.850Z,-1.60
